createdAt,value
2017-12-27T00:01:47.815Z,72.50
2017-12-27T00:04:21.706Z,72.58
2017-12-27T00:10:11.860Z,72.56
2017-12-27T00:12:45.659Z,73.40
2017-12-27T00:15:19.520Z,73.35
2017-12-27T00:20:56.747Z,72.69
2017-12-27T00:23:30.556Z,72.58
2017-12-27T00:26:04.479Z,71.31
2017-12-27T00:28:38.250Z,71.97
2017-12-27T00:31:10.342Z,72.06
2017-12-27T00:33:38.632Z,72.14
2017-12-27T00:36:06.913Z,72.52
2017-12-27T00:38:35.228Z,72.23
2017-12-27T00:41:03.500Z,71.49
2017-12-27T00:43:31.896Z,71.37
2017-12-27T00:46:00.184Z,71.29
2017-12-27T00:48:28.460Z,71.49
2017-12-27T00:50:56.742Z,71.25
2017-12-27T00:53:25.021Z,70.64
2017-12-27T00:55:53.316Z,70.80
2017-12-27T00:58:21.591Z,70.83
2017-12-27T01:00:49.958Z,71.00
2017-12-27T01:03:18.232Z,71.05
2017-12-27T01:05:46.512Z,71.24
2017-12-27T01:08:14.803Z,71.21
2017-12-27T01:10:43.069Z,70.53
2017-12-27T01:13:11.355Z,70.84
2017-12-27T01:15:39.620Z,70.56
2017-12-27T01:18:07.896Z,70.90
2017-12-27T01:20:36.171Z,71.02
2017-12-27T01:23:04.497Z,71.25
2017-12-27T01:25:32.772Z,70.90
2017-12-27T01:28:01.079Z,71.01
2017-12-27T01:30:29.360Z,70.83
2017-12-27T01:32:57.634Z,70.92
2017-12-27T01:35:26.185Z,70.65
2017-12-27T01:37:54.460Z,70.61
2017-12-27T01:40:22.777Z,70.89
2017-12-27T01:42:51.045Z,70.94
2017-12-27T01:45:19.323Z,70.72
2017-12-27T01:47:47.616Z,70.45
2017-12-27T01:50:16.085Z,70.43
2017-12-27T01:52:44.362Z,70.58
2017-12-27T01:55:12.828Z,70.60
2017-12-27T01:57:41.091Z,70.20
2017-12-27T02:00:09.385Z,70.45
2017-12-27T02:02:37.685Z,70.48
2017-12-27T02:05:05.952Z,70.33
2017-12-27T02:07:34.240Z,70.79
2017-12-27T02:10:09.443Z,70.63
2017-12-27T02:12:37.713Z,70.63
2017-12-27T02:15:05.991Z,70.28
2017-12-27T02:17:34.269Z,70.48
2017-12-27T02:20:05.790Z,71.09
2017-12-27T02:22:34.081Z,70.63
2017-12-27T02:25:06.262Z,70.41
2017-12-27T02:27:35.400Z,70.20
2017-12-27T02:30:06.860Z,70.24
2017-12-27T02:32:35.132Z,70.31
2017-12-27T02:35:06.445Z,71.16
2017-12-27T02:37:34.718Z,70.54
2017-12-27T02:40:25.543Z,70.34
2017-12-27T02:42:54.206Z,70.39
2017-12-27T02:45:22.495Z,70.26
2017-12-27T02:47:50.930Z,69.94
2017-12-27T02:50:19.208Z,70.38
2017-12-27T02:52:47.688Z,70.12
2017-12-27T02:55:15.980Z,69.94
2017-12-27T02:57:44.234Z,69.96
2017-12-27T03:00:12.529Z,69.77
2017-12-27T03:02:41.404Z,68.61
2017-12-27T03:05:09.702Z,68.99
2017-12-27T03:07:37.980Z,68.77
2017-12-27T03:10:06.812Z,67.45
2017-12-27T03:12:35.089Z,67.57
2017-12-27T03:15:07.005Z,67.65
2017-12-27T03:17:35.506Z,66.00
2017-12-27T03:20:07.600Z,66.63
2017-12-27T03:22:35.873Z,65.97
2017-12-27T03:25:06.373Z,65.37
2017-12-27T03:27:34.673Z,65.33
2017-12-27T03:30:06.687Z,66.77
2017-12-27T03:32:35.145Z,65.81
2017-12-27T03:35:08.060Z,65.62
2017-12-27T03:37:36.340Z,64.24
2017-12-27T03:40:07.572Z,63.71
2017-12-27T03:42:36.280Z,63.67
2017-12-27T03:45:06.415Z,63.66
2017-12-27T03:47:34.907Z,63.61
2017-12-27T03:50:06.348Z,63.90
2017-12-27T03:52:34.625Z,64.31
2017-12-27T03:55:05.872Z,64.49
2017-12-27T03:57:34.853Z,64.71
2017-12-27T04:00:06.160Z,65.06
2017-12-27T04:02:34.734Z,65.08
2017-12-27T04:05:06.345Z,65.02
2017-12-27T04:07:34.622Z,64.87
2017-12-27T04:10:06.037Z,64.15
2017-12-27T04:12:34.513Z,64.07
2017-12-27T04:15:05.900Z,64.66
2017-12-27T04:17:34.219Z,63.91
2017-12-27T04:20:07.549Z,63.48
2017-12-27T04:22:35.801Z,63.83
2017-12-27T04:25:07.357Z,63.03
2017-12-27T04:27:35.624Z,63.49
2017-12-27T04:30:06.944Z,63.36
2017-12-27T04:32:35.200Z,62.44
2017-12-27T04:35:06.630Z,62.12
2017-12-27T04:37:35.125Z,62.28
2017-12-27T04:40:06.938Z,61.91
2017-12-27T04:42:35.218Z,62.64
2017-12-27T04:45:06.130Z,62.60
2017-12-27T04:47:34.461Z,62.79
2017-12-27T04:50:06.614Z,62.87
2017-12-27T04:52:34.903Z,62.70
2017-12-27T04:55:06.611Z,62.56
2017-12-27T04:57:34.929Z,63.48
2017-12-27T05:00:06.256Z,63.00
2017-12-27T05:02:34.616Z,63.09
2017-12-27T05:05:08.529Z,63.53
2017-12-27T05:07:36.958Z,63.91
2017-12-27T05:10:06.349Z,64.68
2017-12-27T05:12:34.633Z,65.00
2017-12-27T05:15:06.139Z,65.53
2017-12-27T05:17:34.412Z,66.26
2017-12-27T05:20:09.525Z,66.73
2017-12-27T05:22:37.802Z,67.19
2017-12-27T05:25:06.052Z,67.88
2017-12-27T05:27:34.324Z,68.44
2017-12-27T05:30:05.772Z,68.87
2017-12-27T05:32:34.672Z,69.15
2017-12-27T05:35:06.223Z,69.63
2017-12-27T05:37:34.504Z,69.94
2017-12-27T05:40:07.491Z,70.24
2017-12-27T05:42:35.767Z,70.69
2017-12-27T05:45:07.722Z,71.04
2017-12-27T05:47:36.067Z,71.49
2017-12-27T05:50:05.988Z,71.96
2017-12-27T05:52:34.257Z,72.30
2017-12-27T05:55:06.326Z,72.77
2017-12-27T05:57:34.909Z,72.87
2017-12-27T06:00:06.139Z,73.24
2017-12-27T06:02:34.409Z,73.21
2017-12-27T06:05:09.305Z,73.36
2017-12-27T06:07:37.581Z,73.50
2017-12-27T06:10:06.422Z,73.66
2017-12-27T06:12:34.708Z,73.72
2017-12-27T06:15:06.837Z,74.01
2017-12-27T06:17:35.352Z,74.25
2017-12-27T06:20:05.991Z,74.09
2017-12-27T06:22:34.305Z,74.17
2017-12-27T06:25:08.584Z,74.49
2017-12-27T06:27:37.753Z,74.42
2017-12-27T06:30:06.063Z,74.42
2017-12-27T06:32:34.504Z,74.97
2017-12-27T06:35:09.547Z,74.76
2017-12-27T06:37:37.836Z,75.10
2017-12-27T06:40:06.112Z,75.02
2017-12-27T06:42:34.681Z,75.13
2017-12-27T06:45:06.100Z,75.50
2017-12-27T06:47:34.496Z,75.40
2017-12-27T06:50:09.544Z,75.40
2017-12-27T06:52:38.007Z,75.55
2017-12-27T06:55:06.260Z,75.67
2017-12-27T06:57:34.670Z,75.60
2017-12-27T07:00:08.609Z,75.31
2017-12-27T07:02:36.908Z,75.11
2017-12-27T07:05:06.320Z,74.90
2017-12-27T07:07:34.632Z,75.74
2017-12-27T07:10:06.789Z,75.44
2017-12-27T07:12:35.240Z,75.67
2017-12-27T07:15:07.029Z,75.52
2017-12-27T07:17:35.311Z,75.61
2017-12-27T07:20:06.458Z,75.47
2017-12-27T07:22:34.734Z,75.80
2017-12-27T07:25:06.352Z,75.63
2017-12-27T07:27:34.643Z,75.84
2017-12-27T07:30:06.251Z,75.98
2017-12-27T07:32:34.544Z,76.22
2017-12-27T07:35:09.702Z,75.83
2017-12-27T07:37:37.989Z,75.66
2017-12-27T07:40:07.447Z,75.61
2017-12-27T07:42:35.729Z,75.96
2017-12-27T07:45:07.069Z,75.59
2017-12-27T07:47:35.484Z,75.36
2017-12-27T07:50:06.916Z,75.53
2017-12-27T07:52:35.327Z,75.54
2017-12-27T07:55:06.161Z,75.85
2017-12-27T07:57:34.584Z,75.59
2017-12-27T08:00:06.034Z,75.91
2017-12-27T08:02:34.307Z,75.88
2017-12-27T08:05:05.629Z,76.13
2017-12-27T08:07:33.890Z,76.39
2017-12-27T08:10:08.474Z,76.44
2017-12-27T08:12:36.740Z,76.29
2017-12-27T08:15:07.480Z,76.34
2017-12-27T08:17:35.753Z,76.32
2017-12-27T08:20:07.084Z,76.09
2017-12-27T08:22:35.644Z,76.06
2017-12-27T08:25:07.208Z,76.28
2017-12-27T08:27:35.504Z,76.41
2017-12-27T08:30:07.628Z,76.35
2017-12-27T08:32:35.948Z,75.92
2017-12-27T08:35:08.100Z,76.07
2017-12-27T08:37:37.100Z,76.11
2017-12-27T08:40:06.966Z,76.39
2017-12-27T08:42:35.225Z,76.00
2017-12-27T08:45:07.140Z,75.66
2017-12-27T08:47:35.436Z,75.79
2017-12-27T08:50:07.814Z,76.03
2017-12-27T08:52:36.102Z,75.84
2017-12-27T08:55:08.017Z,76.06
2017-12-27T08:57:36.558Z,76.18
2017-12-27T09:00:06.541Z,75.99
2017-12-27T09:02:34.823Z,75.95
2017-12-27T09:05:06.411Z,75.99
2017-12-27T09:07:35.160Z,76.01
2017-12-27T09:10:07.008Z,76.20
2017-12-27T09:12:35.281Z,75.72
2017-12-27T09:15:06.357Z,76.32
2017-12-27T09:17:34.641Z,75.77
2017-12-27T09:20:06.518Z,76.17
2017-12-27T09:22:35.019Z,75.88
2017-12-27T09:25:06.532Z,75.69
2017-12-27T09:27:36.648Z,75.68
2017-12-27T09:30:08.078Z,75.47
2017-12-27T09:32:36.340Z,75.69
2017-12-27T09:35:06.397Z,75.79
2017-12-27T09:37:34.693Z,75.77
2017-12-27T09:40:09.773Z,75.51
2017-12-27T09:42:38.054Z,75.62
2017-12-27T09:45:06.330Z,75.62
2017-12-27T09:47:34.876Z,75.27
2017-12-27T09:50:06.282Z,75.57
2017-12-27T09:52:34.571Z,75.47
2017-12-27T09:55:07.950Z,75.39
2017-12-27T09:57:36.252Z,75.71
2017-12-27T10:00:06.225Z,75.86
2017-12-27T10:02:34.518Z,75.62
2017-12-27T10:05:05.992Z,75.78
2017-12-27T10:07:34.272Z,75.54
2017-12-27T10:10:09.236Z,75.55
2017-12-27T10:12:37.514Z,75.71
2017-12-27T10:15:06.355Z,75.54
2017-12-27T10:17:34.717Z,75.71
2017-12-27T10:20:09.909Z,75.65
2017-12-27T10:22:38.183Z,75.26
2017-12-27T10:25:06.592Z,75.51
2017-12-27T10:27:34.871Z,75.64
2017-12-27T10:30:07.000Z,75.64
2017-12-27T10:32:35.561Z,75.87
2017-12-27T10:35:08.104Z,75.66
2017-12-27T10:37:36.366Z,75.74
2017-12-27T10:40:06.280Z,75.46
2017-12-27T10:42:34.857Z,75.77
2017-12-27T10:45:06.161Z,75.41
2017-12-27T10:47:34.449Z,75.17
2017-12-27T10:50:06.672Z,75.58
2017-12-27T10:52:34.966Z,75.60
2017-12-27T10:55:08.875Z,75.37
2017-12-27T10:57:37.174Z,74.81
2017-12-27T11:00:06.556Z,74.80
2017-12-27T11:02:35.057Z,74.96
2017-12-27T11:05:07.136Z,75.07
2017-12-27T11:07:35.652Z,75.03
2017-12-27T11:10:09.548Z,74.78
2017-12-27T11:12:37.811Z,75.11
2017-12-27T11:15:07.237Z,75.04
2017-12-27T11:17:36.462Z,74.43
2017-12-27T11:20:06.345Z,74.79
2017-12-27T11:22:34.627Z,75.01
2017-12-27T11:25:06.230Z,74.28
2017-12-27T11:27:34.516Z,74.47
2017-12-27T11:30:09.651Z,74.55
2017-12-27T11:32:38.020Z,74.45
2017-12-27T11:35:06.348Z,73.97
2017-12-27T11:37:34.604Z,74.13
2017-12-27T11:40:06.331Z,74.05
2017-12-27T11:42:34.604Z,73.40
2017-12-27T11:45:06.905Z,72.28
2017-12-27T11:47:35.188Z,72.79
2017-12-27T11:50:07.050Z,72.58
2017-12-27T11:52:35.333Z,72.49
2017-12-27T11:55:06.640Z,71.94
2017-12-27T11:57:34.942Z,72.50
2017-12-27T12:00:08.894Z,72.43
2017-12-27T12:02:37.192Z,71.95
2017-12-27T12:05:06.560Z,72.17
2017-12-27T12:07:34.837Z,71.97
2017-12-27T12:10:09.964Z,72.07
2017-12-27T12:12:38.484Z,71.08
2017-12-27T12:15:06.740Z,70.62
2017-12-27T12:17:35.031Z,70.77
2017-12-27T12:20:06.573Z,70.77
2017-12-27T12:22:34.877Z,70.01
2017-12-27T12:25:09.873Z,70.60
2017-12-27T12:27:38.172Z,71.52
2017-12-27T12:30:06.473Z,72.05
2017-12-27T12:32:34.759Z,71.94
2017-12-27T12:35:07.513Z,71.30
2017-12-27T12:37:36.414Z,72.09
2017-12-27T12:40:09.049Z,72.52
2017-12-27T12:42:37.324Z,71.61
2017-12-27T12:45:07.200Z,72.46
2017-12-27T12:47:35.492Z,72.79
2017-12-27T12:50:06.452Z,73.73
2017-12-27T12:52:34.744Z,73.09
2017-12-27T12:55:06.397Z,73.34
2017-12-27T12:57:34.677Z,73.20
2017-12-27T13:00:06.222Z,73.82
2017-12-27T13:02:34.501Z,74.26
2017-12-27T13:05:09.535Z,75.06
2017-12-27T13:07:37.765Z,75.36
2017-12-27T13:10:06.748Z,75.02
2017-12-27T13:12:35.001Z,75.23
2017-12-27T13:15:07.110Z,74.63
2017-12-27T13:17:35.542Z,74.45
2017-12-27T13:20:06.773Z,74.49
2017-12-27T13:22:35.132Z,73.38
2017-12-27T13:25:06.481Z,74.51
2017-12-27T13:27:34.758Z,73.74
2017-12-27T13:30:06.148Z,73.39
2017-12-27T13:32:34.460Z,72.43
2017-12-27T13:35:06.092Z,71.05
2017-12-27T13:37:34.372Z,72.02
2017-12-27T13:40:05.893Z,73.25
2017-12-27T13:42:35.410Z,73.51
2017-12-27T13:45:08.080Z,73.28
2017-12-27T13:47:36.438Z,73.46
2017-12-27T13:50:08.092Z,73.13
2017-12-27T13:52:36.457Z,72.91
2017-12-27T13:55:09.187Z,73.12
2017-12-27T13:57:37.531Z,72.86
2017-12-27T14:00:07.226Z,73.47
2017-12-27T14:02:35.568Z,73.79
2017-12-27T14:05:06.647Z,73.70
2017-12-27T14:07:34.977Z,74.01
2017-12-27T14:10:06.901Z,74.10
2017-12-27T14:12:35.316Z,74.44
2017-12-27T14:15:06.765Z,74.63
2017-12-27T14:17:35.208Z,74.13
2017-12-27T14:20:07.212Z,74.78
2017-12-27T14:22:35.866Z,75.61
2017-12-27T14:25:06.391Z,75.96
2017-12-27T14:27:34.754Z,75.91
2017-12-27T14:30:05.660Z,76.14
2017-12-27T14:32:34.132Z,76.21
2017-12-27T14:35:05.781Z,76.37
2017-12-27T14:37:34.129Z,75.63
2017-12-27T14:40:06.282Z,75.97
2017-12-27T14:42:34.625Z,75.60
2017-12-27T14:45:06.833Z,75.80
2017-12-27T14:47:35.221Z,75.44
2017-12-27T14:50:07.389Z,75.54
2017-12-27T14:52:35.770Z,75.46
2017-12-27T14:55:06.429Z,75.02
2017-12-27T14:57:34.780Z,75.34
2017-12-27T15:00:06.579Z,75.55
2017-12-27T15:02:34.952Z,75.51
2017-12-27T15:05:06.360Z,75.93
2017-12-27T15:07:34.749Z,76.26
2017-12-27T15:10:06.916Z,76.05
2017-12-27T15:12:35.296Z,75.64
2017-12-27T15:15:06.877Z,75.52
2017-12-27T15:17:35.166Z,75.76
2017-12-27T15:20:06.984Z,76.23
2017-12-27T15:22:35.764Z,76.08
2017-12-27T15:25:08.865Z,75.98
2017-12-27T15:27:37.187Z,76.21
2017-12-27T15:30:05.817Z,75.43
2017-12-27T15:32:35.232Z,75.74
2017-12-27T15:35:05.904Z,75.82
2017-12-27T15:37:34.540Z,75.79
2017-12-27T15:40:06.092Z,75.88
2017-12-27T15:42:38.311Z,75.89
2017-12-27T15:45:06.638Z,75.95
2017-12-27T15:47:35.126Z,75.71
2017-12-27T15:50:08.005Z,76.00
2017-12-27T15:52:36.396Z,76.16
2017-12-27T15:55:07.785Z,75.99
2017-12-27T15:57:36.369Z,76.16
2017-12-27T16:00:06.746Z,76.35
2017-12-27T16:02:35.126Z,76.73
2017-12-27T16:05:06.830Z,76.40
2017-12-27T16:07:35.223Z,76.41
2017-12-27T16:10:07.492Z,76.41
2017-12-27T16:12:35.853Z,76.39
2017-12-27T16:15:06.188Z,75.77
2017-12-27T16:17:34.530Z,76.23
2017-12-27T16:20:05.866Z,75.98
2017-12-27T16:22:34.204Z,75.93
2017-12-27T16:25:11.184Z,75.82
2017-12-27T16:27:39.520Z,76.04
2017-12-27T16:30:07.945Z,76.36
2017-12-27T16:32:36.308Z,76.43
2017-12-27T16:35:06.223Z,76.42
2017-12-27T16:37:34.553Z,76.99
2017-12-27T16:40:06.565Z,78.37
2017-12-27T16:42:34.951Z,78.54
2017-12-27T16:45:05.732Z,78.56
2017-12-27T16:47:34.061Z,78.83
2017-12-27T16:50:05.612Z,79.15
2017-12-27T16:52:33.957Z,78.75
2017-12-27T16:55:05.496Z,78.98
2017-12-27T16:57:33.840Z,79.19
2017-12-27T17:00:08.962Z,79.13
2017-12-27T17:02:37.289Z,78.91
2017-12-27T17:05:05.771Z,78.77
2017-12-27T17:07:34.113Z,78.50
2017-12-27T17:10:12.482Z,78.13
2017-12-27T17:12:40.946Z,77.97
2017-12-27T17:15:09.427Z,78.18
2017-12-27T17:17:37.805Z,77.67
2017-12-27T17:20:06.150Z,77.37
2017-12-27T17:22:34.531Z,77.24
2017-12-27T17:25:06.118Z,77.08
2017-12-27T17:27:35.115Z,76.80
2017-12-27T17:30:06.823Z,76.95
2017-12-27T17:32:35.212Z,76.99
2017-12-27T17:35:06.560Z,76.94
2017-12-27T17:37:34.942Z,76.64
2017-12-27T17:40:07.976Z,76.42
2017-12-27T17:42:36.388Z,76.39
2017-12-27T17:45:07.237Z,76.76
2017-12-27T17:47:35.617Z,77.15
2017-12-27T17:50:05.949Z,77.65
2017-12-27T17:52:34.423Z,77.61
2017-12-27T17:55:08.441Z,77.77
2017-12-27T17:57:36.899Z,79.03
2017-12-27T18:00:06.121Z,79.84
2017-12-27T18:02:34.491Z,79.08
2017-12-27T18:05:06.263Z,78.92
2017-12-27T18:07:34.625Z,79.87
2017-12-27T18:10:05.875Z,79.75
2017-12-27T18:12:34.538Z,79.37
2017-12-27T18:15:09.562Z,79.73
2017-12-27T18:17:37.867Z,79.41
2017-12-27T18:20:06.099Z,79.30
2017-12-27T18:22:34.374Z,78.90
2017-12-27T18:25:05.885Z,78.98
2017-12-27T18:27:34.177Z,79.30
2017-12-27T18:30:09.272Z,79.79
2017-12-27T18:32:37.567Z,79.63
2017-12-27T18:35:05.843Z,79.47
2017-12-27T18:37:34.117Z,78.86
2017-12-27T18:40:09.226Z,78.28
2017-12-27T18:42:37.500Z,78.05
2017-12-27T18:45:05.857Z,78.48
2017-12-27T18:47:34.358Z,78.17
2017-12-27T18:50:06.684Z,78.10
2017-12-27T18:52:34.957Z,78.87
2017-12-27T18:55:06.967Z,78.60
2017-12-27T18:57:35.235Z,78.71
2017-12-27T19:00:07.288Z,78.56
2017-12-27T19:02:35.541Z,78.50
2017-12-27T19:05:06.752Z,79.18
2017-12-27T19:07:35.022Z,79.35
2017-12-27T19:10:06.049Z,79.83
2017-12-27T19:12:34.324Z,79.32
2017-12-27T19:15:05.630Z,79.33
2017-12-27T19:17:33.924Z,79.04
2017-12-27T19:20:08.841Z,78.96
2017-12-27T19:22:37.117Z,80.15
2017-12-27T19:25:05.798Z,79.39
2017-12-27T19:27:34.364Z,80.13
2017-12-27T19:30:05.683Z,79.93
2017-12-27T19:32:33.960Z,79.80
2017-12-27T19:35:05.246Z,80.11
2017-12-27T19:37:33.534Z,79.75
2017-12-27T19:40:08.311Z,79.50
2017-12-27T19:42:36.634Z,79.58
2017-12-27T19:45:05.962Z,79.37
2017-12-27T19:47:34.242Z,79.68
2017-12-27T19:50:05.789Z,80.18
2017-12-27T19:52:34.052Z,80.31
2017-12-27T19:55:09.154Z,80.24
2017-12-27T19:57:37.818Z,80.65
2017-12-27T20:00:06.077Z,79.96
2017-12-27T20:02:34.362Z,80.16
2017-12-27T20:05:09.510Z,80.50
2017-12-27T20:07:37.765Z,81.11
2017-12-27T20:10:06.041Z,81.13
2017-12-27T20:12:34.300Z,80.78
2017-12-27T20:15:09.416Z,80.88
2017-12-27T20:17:37.691Z,80.44
2017-12-27T20:20:05.967Z,80.11
2017-12-27T20:22:34.240Z,79.86
2017-12-27T20:25:05.872Z,80.45
2017-12-27T20:27:34.140Z,80.58
2017-12-27T20:30:08.105Z,80.47
2017-12-27T20:32:36.380Z,80.49
2017-12-27T20:35:06.304Z,80.58
2017-12-27T20:37:34.585Z,80.59
2017-12-27T20:40:08.565Z,80.65
2017-12-27T20:42:37.092Z,81.00
2017-12-27T20:45:07.227Z,81.34
2017-12-27T20:47:35.488Z,81.04
2017-12-27T20:50:06.970Z,81.06
2017-12-27T20:52:35.262Z,80.64
2017-12-27T20:55:07.066Z,80.36
2017-12-27T20:57:35.338Z,80.51
2017-12-27T21:00:06.957Z,79.92
2017-12-27T21:02:35.459Z,80.37
2017-12-27T21:05:07.572Z,80.20
2017-12-27T21:07:35.858Z,80.46
2017-12-27T21:10:07.596Z,80.33
2017-12-27T21:12:35.876Z,80.57
2017-12-27T21:15:07.803Z,80.24
2017-12-27T21:17:36.056Z,80.47
2017-12-27T21:20:05.943Z,80.60
2017-12-27T21:22:34.205Z,79.94
2017-12-27T21:25:05.780Z,80.08
2017-12-27T21:27:34.081Z,79.71
2017-12-27T21:30:05.354Z,79.49
2017-12-27T21:32:33.809Z,79.72
2017-12-27T21:35:07.561Z,80.93
2017-12-27T21:37:35.993Z,81.37
2017-12-27T21:40:06.010Z,82.31
2017-12-27T21:42:34.273Z,80.86
2017-12-27T21:45:05.812Z,81.49
2017-12-27T21:47:39.718Z,82.29
2017-12-27T21:50:07.978Z,82.22
2017-12-27T21:52:36.259Z,81.33
2017-12-27T21:55:08.066Z,81.05
2017-12-27T21:57:36.330Z,81.07
2017-12-27T22:00:11.829Z,81.08
2017-12-27T22:02:40.095Z,83.06
2017-12-27T22:05:08.591Z,82.39
2017-12-27T22:07:37.160Z,82.94
2017-12-27T22:10:06.594Z,82.70
2017-12-27T22:12:34.868Z,84.03
2017-12-27T22:15:07.015Z,83.75
2017-12-27T22:17:35.269Z,83.91
2017-12-27T22:20:12.742Z,84.96
2017-12-27T22:22:41.481Z,82.38
2017-12-27T22:25:09.938Z,85.27
2017-12-27T22:27:38.213Z,83.90
2017-12-27T22:30:06.468Z,82.79
2017-12-27T22:32:34.915Z,83.02
2017-12-27T22:35:06.038Z,82.54
2017-12-27T22:37:34.341Z,82.51
2017-12-27T22:40:09.880Z,82.22
2017-12-27T22:42:38.404Z,82.90
2017-12-27T22:45:06.674Z,82.29
2017-12-27T22:47:34.963Z,82.61
2017-12-27T22:50:06.037Z,82.25
2017-12-27T22:52:34.579Z,82.23
2017-12-27T22:55:06.134Z,82.13
2017-12-27T22:57:34.480Z,82.38
2017-12-27T23:00:09.663Z,81.79
2017-12-27T23:02:38.244Z,81.86
2017-12-27T23:05:06.469Z,82.50
2017-12-27T23:07:34.777Z,82.80
2017-12-27T23:10:06.300Z,83.00
2017-12-27T23:12:34.596Z,82.26
2017-12-27T23:15:06.081Z,82.23
2017-12-27T23:17:34.339Z,82.81
2017-12-27T23:20:07.366Z,82.87
2017-12-27T23:22:35.924Z,82.96
2017-12-27T23:25:07.341Z,82.33
2017-12-27T23:27:35.627Z,82.47
2017-12-27T23:30:07.169Z,82.27
2017-12-27T23:32:35.441Z,82.30
2017-12-27T23:35:06.978Z,83.09
2017-12-27T23:37:35.296Z,82.67
2017-12-27T23:40:06.527Z,83.12
2017-12-27T23:42:34.800Z,83.08
2017-12-27T23:45:08.745Z,83.59
2017-12-27T23:47:37.053Z,84.11
2017-12-27T23:50:06.303Z,84.51
2017-12-27T23:52:34.625Z,84.53
2017-12-27T23:55:09.835Z,84.75
2017-12-27T23:57:38.138Z,85.16
